sensor_id;sensor_type;location;lat;lon;timestamp;P1;durP1;ratioP1;P2;durP2;ratioP2
7162;SDS011;3623;47.098;15.446;2022-12-29T00:01:32;13.27;;;8.70;;
7162;SDS011;3623;47.098;15.446;2022-12-29T00:04:00;14.10;;;8.23;;
7162;SDS011;3623;47.098;15.446;2022-12-29T00:06:28;11.30;;;8.35;;
7162;SDS011;3623;47.098;15.446;2022-12-29T00:08:55;10.05;;;7.45;;
7162;SDS011;3623;47.098;15.446;2022-12-29T00:11:23;11.95;;;7.50;;
7162;SDS011;3623;47.098;15.446;2022-12-29T00:13:52;12.88;;;7.70;;
7162;SDS011;3623;47.098;15.446;2022-12-29T00:16:37;9.05;;;7.65;;
7162;SDS011;3623;47.098;15.446;2022-12-29T00:19:07;8.63;;;7.25;;
7162;SDS011;3623;47.098;15.446;2022-12-29T00:21:55;8.82;;;7.75;;
7162;SDS011;3623;47.098;15.446;2022-12-29T00:24:42;8.13;;;7.32;;
7162;SDS011;3623;47.098;15.446;2022-12-29T00:27:27;12.30;;;8.10;;
7162;SDS011;3623;47.098;15.446;2022-12-29T00:30:15;7.30;;;6.60;;
7162;SDS011;3623;47.098;15.446;2022-12-29T00:33:04;9.85;;;8.60;;
7162;SDS011;3623;47.098;15.446;2022-12-29T00:35:55;9.02;;;8.15;;
7162;SDS011;3623;47.098;15.446;2022-12-29T00:38:28;9.63;;;7.85;;
7162;SDS011;3623;47.098;15.446;2022-12-29T00:41:17;7.85;;;7.15;;
7162;SDS011;3623;47.098;15.446;2022-12-29T00:44:01;17.15;;;8.18;;
7162;SDS011;3623;47.098;15.446;2022-12-29T00:46:31;9.95;;;7.70;;
7162;SDS011;3623;47.098;15.446;2022-12-29T00:48:59;9.95;;;7.20;;
7162;SDS011;3623;47.098;15.446;2022-12-29T00:51:44;8.95;;;7.60;;
7162;SDS011;3623;47.098;15.446;2022-12-29T00:54:12;8.05;;;7.15;;
7162;SDS011;3623;47.098;15.446;2022-12-29T00:56:40;10.73;;;7.28;;
7162;SDS011;3623;47.098;15.446;2022-12-29T00:59:08;8.75;;;7.85;;
7162;SDS011;3623;47.098;15.446;2022-12-29T01:01:37;7.43;;;6.57;;
7162;SDS011;3623;47.098;15.446;2022-12-29T01:04:04;7.32;;;6.63;;
7162;SDS011;3623;47.098;15.446;2022-12-29T01:06:32;12.32;;;7.57;;
7162;SDS011;3623;47.098;15.446;2022-12-29T01:09:01;7.63;;;6.93;;
7162;SDS011;3623;47.098;15.446;2022-12-29T01:11:47;8.98;;;7.80;;
7162;SDS011;3623;47.098;15.446;2022-12-29T01:14:14;8.48;;;7.05;;
7162;SDS011;3623;47.098;15.446;2022-12-29T01:16:41;8.32;;;7.30;;
7162;SDS011;3623;47.098;15.446;2022-12-29T01:19:08;8.65;;;7.35;;
7162;SDS011;3623;47.098;15.446;2022-12-29T01:21:35;9.55;;;8.10;;
7162;SDS011;3623;47.098;15.446;2022-12-29T01:24:02;9.25;;;7.20;;
7162;SDS011;3623;47.098;15.446;2022-12-29T01:26:30;6.97;;;6.32;;
7162;SDS011;3623;47.098;15.446;2022-12-29T01:28:59;9.23;;;7.55;;
7162;SDS011;3623;47.098;15.446;2022-12-29T01:31:26;8.57;;;7.13;;
7162;SDS011;3623;47.098;15.446;2022-12-29T01:33:53;8.57;;;7.68;;
7162;SDS011;3623;47.098;15.446;2022-12-29T01:36:20;10.93;;;7.30;;
7162;SDS011;3623;47.098;15.446;2022-12-29T01:38:47;9.32;;;7.38;;
7162;SDS011;3623;47.098;15.446;2022-12-29T01:41:14;8.38;;;7.47;;
7162;SDS011;3623;47.098;15.446;2022-12-29T01:43:42;8.45;;;7.65;;
7162;SDS011;3623;47.098;15.446;2022-12-29T01:46:18;12.32;;;6.63;;
7162;SDS011;3623;47.098;15.446;2022-12-29T01:48:51;8.75;;;7.20;;
7162;SDS011;3623;47.098;15.446;2022-12-29T01:51:22;7.65;;;6.95;;
7162;SDS011;3623;47.098;15.446;2022-12-29T01:53:51;7.15;;;6.47;;
7162;SDS011;3623;47.098;15.446;2022-12-29T01:56:20;8.80;;;7.97;;
7162;SDS011;3623;47.098;15.446;2022-12-29T01:58:48;8.07;;;7.32;;
7162;SDS011;3623;47.098;15.446;2022-12-29T02:01:21;10.00;;;7.15;;
7162;SDS011;3623;47.098;15.446;2022-12-29T02:03:48;11.10;;;6.45;;
7162;SDS011;3623;47.098;15.446;2022-12-29T02:06:18;9.15;;;7.65;;
7162;SDS011;3623;47.098;15.446;2022-12-29T02:08:49;9.30;;;6.82;;
7162;SDS011;3623;47.098;15.446;2022-12-29T02:11:18;11.57;;;7.72;;
7162;SDS011;3623;47.098;15.446;2022-12-29T02:13:47;7.72;;;6.93;;
7162;SDS011;3623;47.098;15.446;2022-12-29T02:22:19;8.40;;;7.15;;
7162;SDS011;3623;47.098;15.446;2022-12-29T02:25:15;8.05;;;7.00;;
7162;SDS011;3623;47.098;15.446;2022-12-29T02:31:11;9.88;;;8.27;;
7162;SDS011;3623;47.098;15.446;2022-12-29T02:33:48;14.27;;;8.73;;
7162;SDS011;3623;47.098;15.446;2022-12-29T02:36:24;10.05;;;7.97;;
7162;SDS011;3623;47.098;15.446;2022-12-29T02:38:59;10.73;;;8.30;;
7162;SDS011;3623;47.098;15.446;2022-12-29T02:41:31;8.55;;;7.72;;
7162;SDS011;3623;47.098;15.446;2022-12-29T02:44:01;10.27;;;7.78;;
7162;SDS011;3623;47.098;15.446;2022-12-29T02:46:41;10.50;;;8.30;;
7162;SDS011;3623;47.098;15.446;2022-12-29T02:49:12;8.40;;;7.60;;
7162;SDS011;3623;47.098;15.446;2022-12-29T02:51:50;11.63;;;8.00;;
7162;SDS011;3623;47.098;15.446;2022-12-29T02:54:19;7.68;;;6.97;;
7162;SDS011;3623;47.098;15.446;2022-12-29T02:57:05;9.30;;;6.72;;
7162;SDS011;3623;47.098;15.446;2022-12-29T02:59:34;9.35;;;7.20;;
7162;SDS011;3623;47.098;15.446;2022-12-29T03:02:10;7.55;;;6.85;;
7162;SDS011;3623;47.098;15.446;2022-12-29T03:07:50;10.52;;;7.15;;
7162;SDS011;3623;47.098;15.446;2022-12-29T03:10:29;7.28;;;6.22;;
7162;SDS011;3623;47.098;15.446;2022-12-29T03:13:02;12.20;;;7.63;;
7162;SDS011;3623;47.098;15.446;2022-12-29T03:15:55;7.03;;;6.32;;
7162;SDS011;3623;47.098;15.446;2022-12-29T03:18:34;6.57;;;5.93;;
7162;SDS011;3623;47.098;15.446;2022-12-29T03:21:07;8.27;;;7.20;;
7162;SDS011;3623;47.098;15.446;2022-12-29T03:23:37;9.45;;;7.07;;
7162;SDS011;3623;47.098;15.446;2022-12-29T03:26:10;10.35;;;8.80;;
7162;SDS011;3623;47.098;15.446;2022-12-29T03:28:39;9.27;;;6.97;;
7162;SDS011;3623;47.098;15.446;2022-12-29T03:31:11;7.72;;;6.70;;
7162;SDS011;3623;47.098;15.446;2022-12-29T03:33:41;8.80;;;7.90;;
7162;SDS011;3623;47.098;15.446;2022-12-29T03:36:10;7.88;;;7.03;;
7162;SDS011;3623;47.098;15.446;2022-12-29T03:38:43;7.60;;;6.85;;
7162;SDS011;3623;47.098;15.446;2022-12-29T03:41:14;8.27;;;6.50;;
7162;SDS011;3623;47.098;15.446;2022-12-29T03:43:45;7.85;;;6.88;;
7162;SDS011;3623;47.098;15.446;2022-12-29T03:46:12;7.60;;;6.80;;
7162;SDS011;3623;47.098;15.446;2022-12-29T03:48:40;7.28;;;6.05;;
7162;SDS011;3623;47.098;15.446;2022-12-29T03:51:08;8.27;;;7.35;;
7162;SDS011;3623;47.098;15.446;2022-12-29T03:53:35;9.57;;;7.25;;
7162;SDS011;3623;47.098;15.446;2022-12-29T03:56:03;8.07;;;6.38;;
7162;SDS011;3623;47.098;15.446;2022-12-29T03:58:30;7.47;;;6.78;;
7162;SDS011;3623;47.098;15.446;2022-12-29T04:00:57;6.78;;;6.18;;
7162;SDS011;3623;47.098;15.446;2022-12-29T04:03:24;7.07;;;6.35;;
7162;SDS011;3623;47.098;15.446;2022-12-29T04:05:53;7.70;;;5.55;;
7162;SDS011;3623;47.098;15.446;2022-12-29T04:08:20;7.00;;;6.30;;
7162;SDS011;3623;47.098;15.446;2022-12-29T04:10:47;7.88;;;6.78;;
7162;SDS011;3623;47.098;15.446;2022-12-29T04:13:15;8.13;;;5.88;;
7162;SDS011;3623;47.098;15.446;2022-12-29T04:15:42;9.10;;;7.40;;
7162;SDS011;3623;47.098;15.446;2022-12-29T04:18:10;6.57;;;5.97;;
7162;SDS011;3623;47.098;15.446;2022-12-29T04:20:37;6.57;;;5.78;;
7162;SDS011;3623;47.098;15.446;2022-12-29T04:23:23;7.32;;;6.57;;
7162;SDS011;3623;47.098;15.446;2022-12-29T04:25:50;6.60;;;5.97;;
7162;SDS011;3623;47.098;15.446;2022-12-29T04:28:17;8.48;;;6.50;;
7162;SDS011;3623;47.098;15.446;2022-12-29T04:30:45;11.73;;;7.38;;
7162;SDS011;3623;47.098;15.446;2022-12-29T04:33:13;5.72;;;5.30;;
7162;SDS011;3623;47.098;15.446;2022-12-29T04:35:40;7.15;;;6.38;;
7162;SDS011;3623;47.098;15.446;2022-12-29T04:38:08;8.90;;;6.78;;
7162;SDS011;3623;47.098;15.446;2022-12-29T04:40:39;10.13;;;6.72;;
7162;SDS011;3623;47.098;15.446;2022-12-29T04:43:06;7.80;;;6.97;;
7162;SDS011;3623;47.098;15.446;2022-12-29T04:45:35;8.80;;;7.45;;
7162;SDS011;3623;47.098;15.446;2022-12-29T04:48:02;9.30;;;7.88;;
7162;SDS011;3623;47.098;15.446;2022-12-29T04:50:33;9.15;;;7.65;;
7162;SDS011;3623;47.098;15.446;2022-12-29T04:53:01;11.85;;;7.82;;
7162;SDS011;3623;47.098;15.446;2022-12-29T04:55:28;13.15;;;8.13;;
7162;SDS011;3623;47.098;15.446;2022-12-29T04:57:57;8.45;;;7.68;;
7162;SDS011;3623;47.098;15.446;2022-12-29T05:00:24;8.20;;;7.45;;
7162;SDS011;3623;47.098;15.446;2022-12-29T05:02:51;8.52;;;7.70;;
7162;SDS011;3623;47.098;15.446;2022-12-29T05:05:19;8.98;;;8.07;;
7162;SDS011;3623;47.098;15.446;2022-12-29T05:07:46;8.15;;;7.38;;
7162;SDS011;3623;47.098;15.446;2022-12-29T05:10:13;8.60;;;7.63;;
7162;SDS011;3623;47.098;15.446;2022-12-29T05:12:40;8.10;;;7.20;;
7162;SDS011;3623;47.098;15.446;2022-12-29T05:15:09;8.85;;;7.35;;
7162;SDS011;3623;47.098;15.446;2022-12-29T05:17:37;9.32;;;7.82;;
7162;SDS011;3623;47.098;15.446;2022-12-29T05:20:04;8.48;;;7.68;;
7162;SDS011;3623;47.098;15.446;2022-12-29T05:22:33;8.50;;;7.28;;
7162;SDS011;3623;47.098;15.446;2022-12-29T05:25:00;7.97;;;6.38;;
7162;SDS011;3623;47.098;15.446;2022-12-29T05:27:27;8.55;;;7.53;;
7162;SDS011;3623;47.098;15.446;2022-12-29T05:29:54;8.52;;;7.55;;
7162;SDS011;3623;47.098;15.446;2022-12-29T05:32:23;10.35;;;7.55;;
7162;SDS011;3623;47.098;15.446;2022-12-29T05:34:51;8.27;;;7.07;;
7162;SDS011;3623;47.098;15.446;2022-12-29T05:37:18;8.25;;;7.45;;
7162;SDS011;3623;47.098;15.446;2022-12-29T05:39:45;8.52;;;7.80;;
7162;SDS011;3623;47.098;15.446;2022-12-29T05:42:13;8.25;;;7.40;;
7162;SDS011;3623;47.098;15.446;2022-12-29T05:44:40;8.30;;;7.60;;
7162;SDS011;3623;47.098;15.446;2022-12-29T05:47:07;9.80;;;7.60;;
7162;SDS011;3623;47.098;15.446;2022-12-29T05:49:36;8.27;;;7.50;;
7162;SDS011;3623;47.098;15.446;2022-12-29T05:52:06;9.23;;;7.75;;
7162;SDS011;3623;47.098;15.446;2022-12-29T05:54:33;8.30;;;7.50;;
7162;SDS011;3623;47.098;15.446;2022-12-29T05:57:00;8.65;;;7.10;;
7162;SDS011;3623;47.098;15.446;2022-12-29T05:59:27;8.52;;;7.20;;
7162;SDS011;3623;47.098;15.446;2022-12-29T06:01:55;10.68;;;8.43;;
7162;SDS011;3623;47.098;15.446;2022-12-29T06:04:22;8.77;;;7.88;;
7162;SDS011;3623;47.098;15.446;2022-12-29T06:06:50;8.90;;;8.10;;
7162;SDS011;3623;47.098;15.446;2022-12-29T06:09:17;14.07;;;8.18;;
7162;SDS011;3623;47.098;15.446;2022-12-29T06:11:44;9.88;;;7.40;;
7162;SDS011;3623;47.098;15.446;2022-12-29T06:14:11;11.02;;;7.60;;
7162;SDS011;3623;47.098;15.446;2022-12-29T06:16:38;7.75;;;6.65;;
7162;SDS011;3623;47.098;15.446;2022-12-29T06:19:07;8.15;;;7.25;;
7162;SDS011;3623;47.098;15.446;2022-12-29T06:21:34;9.40;;;8.50;;
7162;SDS011;3623;47.098;15.446;2022-12-29T06:24:04;8.52;;;6.57;;
7162;SDS011;3623;47.098;15.446;2022-12-29T06:26:32;6.63;;;6.00;;
7162;SDS011;3623;47.098;15.446;2022-12-29T06:28:59;7.88;;;7.05;;
7162;SDS011;3623;47.098;15.446;2022-12-29T06:31:27;9.10;;;7.20;;
7162;SDS011;3623;47.098;15.446;2022-12-29T06:33:55;9.02;;;6.05;;
7162;SDS011;3623;47.098;15.446;2022-12-29T06:36:30;9.57;;;6.75;;
7162;SDS011;3623;47.098;15.446;2022-12-29T06:38:59;7.78;;;7.07;;
7162;SDS011;3623;47.098;15.446;2022-12-29T06:41:31;7.32;;;6.45;;
7162;SDS011;3623;47.098;15.446;2022-12-29T06:43:58;8.25;;;7.43;;
7162;SDS011;3623;47.098;15.446;2022-12-29T06:46:25;6.95;;;6.05;;
7162;SDS011;3623;47.098;15.446;2022-12-29T06:48:53;7.00;;;6.28;;
7162;SDS011;3623;47.098;15.446;2022-12-29T06:51:20;6.88;;;5.80;;
7162;SDS011;3623;47.098;15.446;2022-12-29T06:53:47;10.85;;;6.60;;
7162;SDS011;3623;47.098;15.446;2022-12-29T06:56:15;7.00;;;6.35;;
7162;SDS011;3623;47.098;15.446;2022-12-29T06:58:43;6.60;;;5.97;;
7162;SDS011;3623;47.098;15.446;2022-12-29T07:01:10;7.13;;;5.90;;
7162;SDS011;3623;47.098;15.446;2022-12-29T07:03:41;6.57;;;5.30;;
7162;SDS011;3623;47.098;15.446;2022-12-29T07:06:11;7.53;;;6.50;;
7162;SDS011;3623;47.098;15.446;2022-12-29T07:08:38;7.82;;;6.30;;
7162;SDS011;3623;47.098;15.446;2022-12-29T07:11:07;7.95;;;6.22;;
7162;SDS011;3623;47.098;15.446;2022-12-29T07:13:34;9.85;;;6.60;;
7162;SDS011;3623;47.098;15.446;2022-12-29T07:16:06;6.47;;;5.45;;
7162;SDS011;3623;47.098;15.446;2022-12-29T07:18:34;14.43;;;6.60;;
7162;SDS011;3623;47.098;15.446;2022-12-29T07:21:02;6.35;;;5.75;;
7162;SDS011;3623;47.098;15.446;2022-12-29T07:23:30;6.10;;;5.60;;
7162;SDS011;3623;47.098;15.446;2022-12-29T07:25:59;8.40;;;6.03;;
7162;SDS011;3623;47.098;15.446;2022-12-29T07:28:26;7.97;;;7.28;;
7162;SDS011;3623;47.098;15.446;2022-12-29T07:30:55;8.48;;;6.18;;
7162;SDS011;3623;47.098;15.446;2022-12-29T07:33:24;10.15;;;7.60;;
7162;SDS011;3623;47.098;15.446;2022-12-29T07:35:54;9.43;;;8.43;;
7162;SDS011;3623;47.098;15.446;2022-12-29T07:38:25;11.43;;;8.50;;
7162;SDS011;3623;47.098;15.446;2022-12-29T07:40:56;7.60;;;7.00;;
7162;SDS011;3623;47.098;15.446;2022-12-29T07:43:24;7.53;;;6.82;;
7162;SDS011;3623;47.098;15.446;2022-12-29T07:45:52;6.63;;;6.03;;
7162;SDS011;3623;47.098;15.446;2022-12-29T07:48:20;6.95;;;6.28;;
7162;SDS011;3623;47.098;15.446;2022-12-29T07:50:49;9.20;;;6.07;;
7162;SDS011;3623;47.098;15.446;2022-12-29T07:53:20;8.23;;;6.53;;
7162;SDS011;3623;47.098;15.446;2022-12-29T07:55:49;8.15;;;6.07;;
7162;SDS011;3623;47.098;15.446;2022-12-29T07:58:16;8.00;;;6.13;;
7162;SDS011;3623;47.098;15.446;2022-12-29T08:00:43;7.93;;;6.18;;
7162;SDS011;3623;47.098;15.446;2022-12-29T08:03:10;6.80;;;6.10;;
7162;SDS011;3623;47.098;15.446;2022-12-29T08:05:37;8.15;;;5.78;;
7162;SDS011;3623;47.098;15.446;2022-12-29T08:08:06;13.25;;;6.28;;
7162;SDS011;3623;47.098;15.446;2022-12-29T08:10:33;10.20;;;7.07;;
7162;SDS011;3623;47.098;15.446;2022-12-29T08:13:00;9.07;;;7.10;;
7162;SDS011;3623;47.098;15.446;2022-12-29T08:15:27;7.82;;;6.65;;
7162;SDS011;3623;47.098;15.446;2022-12-29T08:17:54;7.13;;;6.45;;
7162;SDS011;3623;47.098;15.446;2022-12-29T08:20:21;7.80;;;6.68;;
7162;SDS011;3623;47.098;15.446;2022-12-29T08:22:48;7.80;;;6.00;;
7162;SDS011;3623;47.098;15.446;2022-12-29T08:25:18;7.63;;;6.75;;
7162;SDS011;3623;47.098;15.446;2022-12-29T08:27:45;6.57;;;5.97;;
7162;SDS011;3623;47.098;15.446;2022-12-29T08:30:13;8.23;;;7.13;;
7162;SDS011;3623;47.098;15.446;2022-12-29T08:32:40;7.72;;;7.00;;
7162;SDS011;3623;47.098;15.446;2022-12-29T08:35:08;10.38;;;6.70;;
7162;SDS011;3623;47.098;15.446;2022-12-29T08:37:35;9.27;;;7.38;;
7162;SDS011;3623;47.098;15.446;2022-12-29T08:40:02;7.43;;;6.15;;
7162;SDS011;3623;47.098;15.446;2022-12-29T08:42:32;7.57;;;5.93;;
7162;SDS011;3623;47.098;15.446;2022-12-29T08:44:59;8.27;;;7.47;;
7162;SDS011;3623;47.098;15.446;2022-12-29T08:47:27;8.30;;;5.55;;
7162;SDS011;3623;47.098;15.446;2022-12-29T08:49:54;5.88;;;5.28;;
7162;SDS011;3623;47.098;15.446;2022-12-29T08:52:21;7.13;;;5.70;;
7162;SDS011;3623;47.098;15.446;2022-12-29T08:54:49;6.53;;;5.88;;
7162;SDS011;3623;47.098;15.446;2022-12-29T08:57:16;6.32;;;4.60;;
7162;SDS011;3623;47.098;15.446;2022-12-29T08:59:44;5.97;;;5.38;;
7162;SDS011;3623;47.098;15.446;2022-12-29T09:02:11;5.47;;;4.97;;
7162;SDS011;3623;47.098;15.446;2022-12-29T09:04:39;6.45;;;5.38;;
7162;SDS011;3623;47.098;15.446;2022-12-29T09:07:06;8.70;;;6.68;;
7162;SDS011;3623;47.098;15.446;2022-12-29T09:09:33;9.02;;;5.90;;
7162;SDS011;3623;47.098;15.446;2022-12-29T09:12:00;6.25;;;5.43;;
7162;SDS011;3623;47.098;15.446;2022-12-29T09:14:27;6.55;;;5.60;;
7162;SDS011;3623;47.098;15.446;2022-12-29T09:16:55;6.47;;;5.72;;
7162;SDS011;3623;47.098;15.446;2022-12-29T09:19:40;8.82;;;6.13;;
7162;SDS011;3623;47.098;15.446;2022-12-29T09:22:07;7.57;;;6.40;;
7162;SDS011;3623;47.098;15.446;2022-12-29T09:24:34;6.82;;;5.60;;
7162;SDS011;3623;47.098;15.446;2022-12-29T09:27:02;7.97;;;5.90;;
7162;SDS011;3623;47.098;15.446;2022-12-29T09:29:29;8.43;;;5.53;;
7162;SDS011;3623;47.098;15.446;2022-12-29T09:31:58;6.43;;;5.50;;
7162;SDS011;3623;47.098;15.446;2022-12-29T09:34:25;5.90;;;5.30;;
7162;SDS011;3623;47.098;15.446;2022-12-29T09:36:52;9.48;;;6.15;;
7162;SDS011;3623;47.098;15.446;2022-12-29T09:39:21;6.72;;;5.25;;
7162;SDS011;3623;47.098;15.446;2022-12-29T09:41:49;6.82;;;5.45;;
7162;SDS011;3623;47.098;15.446;2022-12-29T09:44:26;11.35;;;6.10;;
7162;SDS011;3623;47.098;15.446;2022-12-29T09:47:06;10.68;;;7.18;;
7162;SDS011;3623;47.098;15.446;2022-12-29T09:49:40;8.38;;;6.20;;
7162;SDS011;3623;47.098;15.446;2022-12-29T09:52:12;13.38;;;6.60;;
7162;SDS011;3623;47.098;15.446;2022-12-29T09:54:45;11.27;;;7.68;;
7162;SDS011;3623;47.098;15.446;2022-12-29T09:57:19;6.85;;;6.20;;
7162;SDS011;3623;47.098;15.446;2022-12-29T09:59:50;10.88;;;6.68;;
7162;SDS011;3623;47.098;15.446;2022-12-29T10:02:29;6.75;;;5.90;;
7162;SDS011;3623;47.098;15.446;2022-12-29T10:05:00;7.75;;;6.97;;
7162;SDS011;3623;47.098;15.446;2022-12-29T10:07:30;10.20;;;6.28;;
7162;SDS011;3623;47.098;15.446;2022-12-29T10:10:12;9.50;;;5.25;;
7162;SDS011;3623;47.098;15.446;2022-12-29T10:12:50;6.57;;;5.93;;
7162;SDS011;3623;47.098;15.446;2022-12-29T10:15:29;7.63;;;5.63;;
7162;SDS011;3623;47.098;15.446;2022-12-29T10:18:08;14.55;;;5.45;;
7162;SDS011;3623;47.098;15.446;2022-12-29T10:20:48;5.60;;;5.10;;
7162;SDS011;3623;47.098;15.446;2022-12-29T10:23:22;5.78;;;5.25;;
7162;SDS011;3623;47.098;15.446;2022-12-29T10:25:54;6.22;;;4.22;;
7162;SDS011;3623;47.098;15.446;2022-12-29T10:28:23;6.10;;;4.40;;
7162;SDS011;3623;47.098;15.446;2022-12-29T10:30:51;6.40;;;5.10;;
7162;SDS011;3623;47.098;15.446;2022-12-29T10:33:22;6.40;;;4.90;;
7162;SDS011;3623;47.098;15.446;2022-12-29T10:35:55;6.45;;;4.75;;
7162;SDS011;3623;47.098;15.446;2022-12-29T10:38:25;4.90;;;4.47;;
7162;SDS011;3623;47.098;15.446;2022-12-29T10:40:57;5.78;;;4.95;;
7162;SDS011;3623;47.098;15.446;2022-12-29T10:43:29;5.85;;;4.18;;
7162;SDS011;3623;47.098;15.446;2022-12-29T10:46:01;5.45;;;3.95;;
7162;SDS011;3623;47.098;15.446;2022-12-29T10:48:32;4.20;;;3.80;;
7162;SDS011;3623;47.098;15.446;2022-12-29T10:51:01;5.82;;;5.20;;
7162;SDS011;3623;47.098;15.446;2022-12-29T10:53:32;6.30;;;4.22;;
7162;SDS011;3623;47.098;15.446;2022-12-29T10:56:05;5.90;;;4.83;;
7162;SDS011;3623;47.098;15.446;2022-12-29T10:58:42;5.70;;;4.57;;
7162;SDS011;3623;47.098;15.446;2022-12-29T11:01:12;4.07;;;3.67;;
7162;SDS011;3623;47.098;15.446;2022-12-29T11:03:51;8.80;;;4.45;;
7162;SDS011;3623;47.098;15.446;2022-12-29T11:06:27;4.00;;;3.60;;
7162;SDS011;3623;47.098;15.446;2022-12-29T11:08:56;4.43;;;4.03;;
7162;SDS011;3623;47.098;15.446;2022-12-29T11:11:26;4.90;;;4.10;;
7162;SDS011;3623;47.098;15.446;2022-12-29T11:13:58;4.77;;;4.30;;
7162;SDS011;3623;47.098;15.446;2022-12-29T11:16:29;4.50;;;4.10;;
7162;SDS011;3623;47.098;15.446;2022-12-29T11:18:58;5.83;;;4.40;;
7162;SDS011;3623;47.098;15.446;2022-12-29T11:21:27;6.40;;;4.80;;
7162;SDS011;3623;47.098;15.446;2022-12-29T11:23:59;3.90;;;3.60;;
7162;SDS011;3623;47.098;15.446;2022-12-29T11:26:28;4.83;;;3.77;;
7162;SDS011;3623;47.098;15.446;2022-12-29T11:29:15;5.13;;;3.60;;
7162;SDS011;3623;47.098;15.446;2022-12-29T11:31:48;5.03;;;4.53;;
7162;SDS011;3623;47.098;15.446;2022-12-29T11:34:19;6.13;;;4.40;;
7162;SDS011;3623;47.098;15.446;2022-12-29T11:36:48;3.80;;;3.50;;
7162;SDS011;3623;47.098;15.446;2022-12-29T11:39:24;3.67;;;3.37;;
7162;SDS011;3623;47.098;15.446;2022-12-29T11:41:56;5.43;;;3.73;;
7162;SDS011;3623;47.098;15.446;2022-12-29T11:44:24;4.30;;;3.90;;
7162;SDS011;3623;47.098;15.446;2022-12-29T11:46:52;5.33;;;4.30;;
7162;SDS011;3623;47.098;15.446;2022-12-29T11:49:22;4.70;;;3.87;;
7162;SDS011;3623;47.098;15.446;2022-12-29T11:51:51;4.20;;;3.90;;
7162;SDS011;3623;47.098;15.446;2022-12-29T11:54:22;5.27;;;4.73;;
7162;SDS011;3623;47.098;15.446;2022-12-29T11:56:52;3.87;;;3.53;;
7162;SDS011;3623;47.098;15.446;2022-12-29T11:59:24;4.20;;;3.57;;
7162;SDS011;3623;47.098;15.446;2022-12-29T12:02:13;6.33;;;3.47;;
7162;SDS011;3623;47.098;15.446;2022-12-29T12:05:03;4.37;;;3.97;;
7162;SDS011;3623;47.098;15.446;2022-12-29T12:07:41;4.10;;;3.70;;
7162;SDS011;3623;47.098;15.446;2022-12-29T12:10:12;4.53;;;3.57;;
7162;SDS011;3623;47.098;15.446;2022-12-29T12:12:46;4.60;;;3.60;;
7162;SDS011;3623;47.098;15.446;2022-12-29T12:15:19;4.03;;;3.50;;
7162;SDS011;3623;47.098;15.446;2022-12-29T12:17:50;4.30;;;3.90;;
7162;SDS011;3623;47.098;15.446;2022-12-29T12:20:22;4.70;;;4.20;;
7162;SDS011;3623;47.098;15.446;2022-12-29T12:23:01;3.87;;;3.57;;
7162;SDS011;3623;47.098;15.446;2022-12-29T12:25:40;6.30;;;3.20;;
7162;SDS011;3623;47.098;15.446;2022-12-29T12:28:15;5.30;;;3.63;;
7162;SDS011;3623;47.098;15.446;2022-12-29T12:30:47;3.10;;;2.90;;
7162;SDS011;3623;47.098;15.446;2022-12-29T12:33:18;2.97;;;2.77;;
7162;SDS011;3623;47.098;15.446;2022-12-29T12:35:53;3.53;;;2.63;;
7162;SDS011;3623;47.098;15.446;2022-12-29T12:38:37;3.50;;;3.20;;
7162;SDS011;3623;47.098;15.446;2022-12-29T12:41:13;4.00;;;3.50;;
7162;SDS011;3623;47.098;15.446;2022-12-29T12:43:48;3.30;;;3.10;;
7162;SDS011;3623;47.098;15.446;2022-12-29T12:46:27;3.73;;;3.47;;
7162;SDS011;3623;47.098;15.446;2022-12-29T12:52:16;4.87;;;3.30;;
7162;SDS011;3623;47.098;15.446;2022-12-29T12:55:03;9.47;;;3.57;;
7162;SDS011;3623;47.098;15.446;2022-12-29T12:57:45;5.03;;;3.07;;
7162;SDS011;3623;47.098;15.446;2022-12-29T13:00:20;3.77;;;2.90;;
7162;SDS011;3623;47.098;15.446;2022-12-29T13:02:56;5.03;;;3.83;;
7162;SDS011;3623;47.098;15.446;2022-12-29T13:05:50;3.60;;;3.30;;
7162;SDS011;3623;47.098;15.446;2022-12-29T13:08:41;6.60;;;4.40;;
7162;SDS011;3623;47.098;15.446;2022-12-29T13:11:22;13.90;;;6.90;;
7162;SDS011;3623;47.098;15.446;2022-12-29T13:14:04;8.13;;;6.27;;
7162;SDS011;3623;47.098;15.446;2022-12-29T13:16:41;7.83;;;7.13;;
7162;SDS011;3623;47.098;15.446;2022-12-29T13:19:17;8.97;;;6.80;;
7162;SDS011;3623;47.098;15.446;2022-12-29T13:21:54;6.23;;;5.73;;
7162;SDS011;3623;47.098;15.446;2022-12-29T13:24:31;8.93;;;5.60;;
7162;SDS011;3623;47.098;15.446;2022-12-29T13:27:09;7.90;;;6.20;;
7162;SDS011;3623;47.098;15.446;2022-12-29T13:29:43;7.40;;;6.40;;
7162;SDS011;3623;47.098;15.446;2022-12-29T13:32:21;15.93;;;7.40;;
7162;SDS011;3623;47.098;15.446;2022-12-29T13:34:59;9.83;;;7.60;;
7162;SDS011;3623;47.098;15.446;2022-12-29T13:37:39;10.47;;;7.60;;
7162;SDS011;3623;47.098;15.446;2022-12-29T13:40:15;8.47;;;7.30;;
7162;SDS011;3623;47.098;15.446;2022-12-29T13:42:44;6.97;;;6.27;;
7162;SDS011;3623;47.098;15.446;2022-12-29T13:45:14;7.60;;;6.60;;
7162;SDS011;3623;47.098;15.446;2022-12-29T13:47:46;10.17;;;6.90;;
7162;SDS011;3623;47.098;15.446;2022-12-29T13:50:19;11.00;;;6.13;;
7162;SDS011;3623;47.098;15.446;2022-12-29T13:52:49;8.90;;;6.60;;
7162;SDS011;3623;47.098;15.446;2022-12-29T13:55:24;7.73;;;6.20;;
7162;SDS011;3623;47.098;15.446;2022-12-29T13:58:02;8.10;;;6.10;;
7162;SDS011;3623;47.098;15.446;2022-12-29T14:00:37;7.47;;;5.63;;
7162;SDS011;3623;47.098;15.446;2022-12-29T14:03:15;11.57;;;6.18;;
7162;SDS011;3623;47.098;15.446;2022-12-29T14:06:05;9.80;;;5.85;;
7162;SDS011;3623;47.098;15.446;2022-12-29T14:08:39;13.50;;;6.05;;
7162;SDS011;3623;47.098;15.446;2022-12-29T14:11:09;6.55;;;5.43;;
7162;SDS011;3623;47.098;15.446;2022-12-29T14:13:37;6.70;;;5.50;;
7162;SDS011;3623;47.098;15.446;2022-12-29T14:16:06;8.75;;;6.47;;
7162;SDS011;3623;47.098;15.446;2022-12-29T14:18:41;8.73;;;6.18;;
7162;SDS011;3623;47.098;15.446;2022-12-29T14:21:10;6.60;;;5.82;;
7162;SDS011;3623;47.098;15.446;2022-12-29T14:23:48;13.02;;;7.90;;
7162;SDS011;3623;47.098;15.446;2022-12-29T14:26:34;12.13;;;7.50;;
7162;SDS011;3623;47.098;15.446;2022-12-29T14:32:09;7.15;;;6.20;;
7162;SDS011;3623;47.098;15.446;2022-12-29T14:38:12;9.32;;;6.55;;
7162;SDS011;3623;47.098;15.446;2022-12-29T14:40:46;7.40;;;5.85;;
7162;SDS011;3623;47.098;15.446;2022-12-29T14:43:17;10.88;;;6.88;;
7162;SDS011;3623;47.098;15.446;2022-12-29T14:45:52;8.75;;;6.97;;
7162;SDS011;3623;47.098;15.446;2022-12-29T14:48:35;7.55;;;6.10;;
7162;SDS011;3623;47.098;15.446;2022-12-29T14:51:18;12.38;;;8.70;;
7162;SDS011;3623;47.098;15.446;2022-12-29T14:53:48;13.43;;;9.43;;
7162;SDS011;3623;47.098;15.446;2022-12-29T14:56:17;13.15;;;10.77;;
7162;SDS011;3623;47.098;15.446;2022-12-29T14:58:49;15.73;;;10.70;;
7162;SDS011;3623;47.098;15.446;2022-12-29T15:01:33;15.80;;;11.07;;
7162;SDS011;3623;47.098;15.446;2022-12-29T15:04:13;10.60;;;5.50;;
7162;SDS011;3623;47.098;15.446;2022-12-29T15:06:43;7.00;;;5.68;;
7162;SDS011;3623;47.098;15.446;2022-12-29T15:09:14;6.30;;;5.70;;
7162;SDS011;3623;47.098;15.446;2022-12-29T15:11:50;6.97;;;5.60;;
7162;SDS011;3623;47.098;15.446;2022-12-29T15:14:34;8.75;;;5.80;;
7162;SDS011;3623;47.098;15.446;2022-12-29T15:17:08;11.82;;;7.60;;
7162;SDS011;3623;47.098;15.446;2022-12-29T15:19:48;12.68;;;9.73;;
7162;SDS011;3623;47.098;15.446;2022-12-29T15:22:15;12.93;;;9.95;;
7162;SDS011;3623;47.098;15.446;2022-12-29T15:24:42;9.23;;;7.63;;
7162;SDS011;3623;47.098;15.446;2022-12-29T15:27:11;8.10;;;6.10;;
7162;SDS011;3623;47.098;15.446;2022-12-29T15:29:42;8.18;;;5.75;;
7162;SDS011;3623;47.098;15.446;2022-12-29T15:32:19;7.82;;;5.90;;
7162;SDS011;3623;47.098;15.446;2022-12-29T15:34:48;11.73;;;5.90;;
7162;SDS011;3623;47.098;15.446;2022-12-29T15:37:20;10.38;;;6.20;;
7162;SDS011;3623;47.098;15.446;2022-12-29T15:39:49;8.80;;;6.22;;
7162;SDS011;3623;47.098;15.446;2022-12-29T15:42:27;14.05;;;6.53;;
7162;SDS011;3623;47.098;15.446;2022-12-29T15:45:08;12.63;;;6.25;;
7162;SDS011;3623;47.098;15.446;2022-12-29T15:47:38;10.70;;;7.00;;